Terminal Aerodrome Forecast
Issued by NWS

Home | Current Version | Previous Version | Text Only | Print | Product List | Glossary On
Versions: 1 2 3 4 5 6 7 8 9 10 11 12 13 14
000
FTUS45 KGJT 252341 AAB
TAFRIL
TAF AMD
KRIL 252341Z 2600/2624 33015G22KT P6SM SCT150
     FM260300 13005KT P6SM SCT250
     FM261300 VRB03KT P6SM SCT250
     FM262000 30008KT P6SM SCT140=

USA.gov is the U.S. government's official web portal to all federal, state and local government web resources and services.